Etusivu
METAR-TAF:

METAR-TAF

Lentoasemat :

USC Campus Downtown

Los Angeles, Kalifornia, Yhdysvallat

Leveyspiiri: 34-01N, Pituuspiiri: 118-17W, korkeus merenpinnasta: 56 m

Tämänhetkinen sää

Tämä raportti tehtiin 1 tunti ja 3 minuuttia sitten, kello 12.59 UTC
tyyntä
Lämpötila 12°C
Kosteus 76%
Ilmanpaine 1015 hPa
Näkyvyys: 9.7 km
Muutamia pilviä 700 ft:n korkeudessa
usvaa

METAR: KCQT 171259Z AUTO 00000KT 6SM HZ FEW007 12/08 A2997 RMK AO2 T01170078

Aika: 06:02 (14:02 UTC)


TAF: puuttuu

Säähavainnot ja -ennusteet yli 4000 lentoasemalta (METAR- ja TAF-raportit).

Käytössä olevat sääasemat on merkitty karttaan keltaisilla ja punaisilla pisteillä.

Aseta hiiri pisteen päälle nähdäksesi sääaseman nimen.

Klikkaa sitten nähdäksesi säähavainnot ja -ennusteet.

Kartan vaihtaminen: klikkaa mustalla rastilla varustettuja vihreitä pisteitä, niin voit zoomata sisään; viivalla varustettua vihreää pistettä, niin voit zoomata ulos tai vihreitä nuolia, niin pääset viereisille kartoille.


METAR-TAF: